createdAt,value
2019-01-11T00:00:45.128Z,-1.40
2019-01-11T00:03:13.959Z,-1.70
2019-01-11T00:05:42.477Z,-1.90
2019-01-11T00:08:11.113Z,-1.70
2019-01-11T00:10:39.634Z,-1.30
2019-01-11T00:13:08.081Z,-1.60
2019-01-11T00:15:36.642Z,-1.80
2019-01-11T00:18:05.539Z,-1.70
2019-01-11T00:20:33.996Z,-1.70
2019-01-11T00:23:02.550Z,-1.80
2019-01-11T00:25:31.075Z,-1.80
2019-01-11T00:27:59.558Z,-1.60
2019-01-11T00:30:28.009Z,-1.70
2019-01-11T00:32:56.480Z,-1.80
2019-01-11T00:35:24.930Z,-1.70
2019-01-11T00:37:53.411Z,-1.80
2019-01-11T00:40:21.858Z,-1.80
2019-01-11T00:42:50.337Z,-1.70
2019-01-11T00:45:18.855Z,-1.80
2019-01-11T00:47:47.339Z,-1.80
2019-01-11T00:50:15.936Z,-1.80
2019-01-11T00:52:44.406Z,-1.80
2019-01-11T00:55:13.032Z,-1.80
2019-01-11T00:57:41.480Z,-1.90
2019-01-11T01:00:13.370Z,-2.10
2019-01-11T01:02:41.925Z,-1.80
2019-01-11T01:05:10.655Z,-1.80
2019-01-11T01:07:39.176Z,-2.30
2019-01-11T01:10:08.030Z,-2.00
2019-01-11T01:12:36.949Z,-2.10
2019-01-11T01:15:09.312Z,-2.30
2019-01-11T01:17:37.982Z,-2.10
2019-01-11T01:20:15.150Z,-2.20
2019-01-11T01:22:43.838Z,-1.60
2019-01-11T01:25:12.437Z,-2.10
2019-01-11T01:27:41.092Z,-2.10
2019-01-11T01:30:17.874Z,-1.60
2019-01-11T01:32:46.489Z,-2.10
2019-01-11T01:35:15.080Z,-2.10
2019-01-11T01:37:44.091Z,-2.20
2019-01-11T01:40:14.828Z,-2.20
2019-01-11T01:42:43.365Z,-2.20
2019-01-11T01:45:14.818Z,-2.20
2019-01-11T01:47:43.352Z,-2.20
2019-01-11T01:50:12.935Z,-2.20
2019-01-11T01:52:41.414Z,-2.10
2019-01-11T01:55:12.166Z,-2.10
2019-01-11T01:57:40.658Z,-2.00
2019-01-11T02:00:12.441Z,-2.00
2019-01-11T02:02:40.916Z,-2.00
2019-01-11T02:05:10.134Z,-2.00
2019-01-11T02:07:38.621Z,-2.00
2019-01-11T02:10:10.108Z,-2.10
2019-01-11T02:12:38.588Z,-2.10
2019-01-11T02:15:08.789Z,-2.10
2019-01-11T02:17:37.266Z,-2.10
2019-01-11T02:20:09.154Z,-2.10
2019-01-11T02:22:37.624Z,-2.20
2019-01-11T02:25:06.917Z,-2.10
2019-01-11T02:27:35.373Z,-2.10
2019-01-11T02:30:05.749Z,-2.10
2019-01-11T02:32:34.216Z,-2.10
2019-01-11T02:35:02.770Z,-2.10
2019-01-11T02:37:31.229Z,-2.10
2019-01-11T02:39:59.712Z,-2.10
2019-01-11T02:42:28.242Z,-2.10
2019-01-11T02:44:56.805Z,-2.10
2019-01-11T02:47:25.256Z,-2.10
2019-01-11T02:49:55.034Z,-2.20
2019-01-11T02:52:23.675Z,-2.20
2019-01-11T02:54:52.122Z,-2.20
2019-01-11T02:57:20.611Z,-2.20
2019-01-11T02:59:49.070Z,-2.30
2019-01-11T03:02:17.534Z,-2.20
2019-01-11T03:04:46.034Z,-2.30
2019-01-11T03:07:14.564Z,-2.20
2019-01-11T03:09:43.040Z,-2.20
2019-01-11T03:12:11.553Z,-2.20
2019-01-11T03:14:40.091Z,-2.30
2019-01-11T03:17:08.547Z,-2.20
2019-01-11T03:19:37.011Z,-2.20
2019-01-11T03:22:05.734Z,-2.30
2019-01-11T03:24:34.205Z,-2.30
2019-01-11T03:27:02.699Z,-2.30
2019-01-11T03:29:31.143Z,-2.30
2019-01-11T03:31:59.592Z,-2.30
2019-01-11T03:34:28.151Z,-2.40
2019-01-11T03:36:56.637Z,-2.50
2019-01-11T03:39:25.125Z,-2.50
2019-01-11T03:41:55.241Z,-2.50
2019-01-11T03:44:23.695Z,-2.60
2019-01-11T03:46:52.182Z,-2.60
2019-01-11T03:49:20.699Z,-2.60
2019-01-11T03:51:49.185Z,-2.60
2019-01-11T03:54:17.679Z,-2.70
2019-01-11T03:56:46.189Z,-2.70
2019-01-11T03:59:14.709Z,-2.80
2019-01-11T04:01:43.177Z,-2.90
2019-01-11T04:04:11.696Z,-3.00
2019-01-11T04:06:40.184Z,-3.00
2019-01-11T04:09:10.117Z,-3.10
2019-01-11T04:11:38.589Z,-3.10
2019-01-11T04:14:07.120Z,-3.10
2019-01-11T04:16:35.679Z,-3.20
2019-01-11T04:19:05.845Z,-3.30
2019-01-11T04:21:34.337Z,-3.40
2019-01-11T04:24:02.813Z,-3.50
2019-01-11T04:26:31.353Z,-3.60
2019-01-11T04:28:59.904Z,-3.80
2019-01-11T04:31:28.373Z,-3.90
2019-01-11T04:33:56.904Z,-4.00
2019-01-11T04:36:25.413Z,-4.00
2019-01-11T04:38:53.896Z,-4.10
2019-01-11T04:41:22.345Z,-4.20
2019-01-11T04:43:50.842Z,-4.30
2019-01-11T04:46:19.364Z,-4.40
2019-01-11T04:48:47.928Z,-4.40
2019-01-11T04:51:16.554Z,-4.40
2019-01-11T04:53:45.169Z,-4.40
2019-01-11T04:56:13.723Z,-4.50
2019-01-11T04:58:42.218Z,-4.50
2019-01-11T05:01:10.677Z,-4.40
2019-01-11T05:03:39.164Z,-4.40
2019-01-11T05:06:07.621Z,-4.40
2019-01-11T05:08:36.120Z,-4.40
2019-01-11T05:11:04.683Z,-4.40
2019-01-11T05:13:37.106Z,-4.50
2019-01-11T05:16:05.802Z,-4.40
2019-01-11T05:18:34.362Z,-4.40
2019-01-11T05:21:02.923Z,-4.40
2019-01-11T05:23:31.484Z,-4.40
2019-01-11T05:25:59.976Z,-4.40
2019-01-11T05:28:28.496Z,-4.30
2019-01-11T05:30:57.650Z,-4.10
2019-01-11T05:33:26.124Z,-4.10
2019-01-11T05:35:54.587Z,-3.90
2019-01-11T05:38:23.068Z,-4.00
2019-01-11T05:40:51.514Z,-4.20
2019-01-11T05:43:19.997Z,-4.30
2019-01-11T05:45:48.451Z,-4.30
2019-01-11T05:48:16.943Z,-4.30
2019-01-11T05:50:45.426Z,-4.20
2019-01-11T05:53:13.879Z,-4.10
2019-01-11T05:55:45.858Z,-4.10
2019-01-11T05:58:19.183Z,-4.00
2019-01-11T06:00:47.675Z,-4.00
2019-01-11T06:03:16.129Z,-4.00
2019-01-11T06:05:44.663Z,-4.00
2019-01-11T06:08:14.790Z,-4.00
2019-01-11T06:10:43.381Z,-4.10
2019-01-11T06:13:11.861Z,-4.10
2019-01-11T06:15:40.327Z,-4.10
2019-01-11T06:18:08.804Z,-4.30
2019-01-11T06:20:37.335Z,-4.30
2019-01-11T06:23:05.821Z,-4.30
2019-01-11T06:25:34.339Z,-4.30
2019-01-11T06:28:02.910Z,-4.20
2019-01-11T06:30:31.363Z,-4.20
2019-01-11T06:32:59.862Z,-4.10
2019-01-11T06:35:28.393Z,-4.10
2019-01-11T06:37:57.026Z,-4.10
2019-01-11T06:40:25.513Z,-4.10
2019-01-11T06:42:54.012Z,-4.00
2019-01-11T06:45:22.563Z,-4.00
2019-01-11T06:47:51.013Z,-4.00
2019-01-11T06:50:19.498Z,-3.90
2019-01-11T06:52:48.074Z,-4.00
2019-01-11T06:55:16.616Z,-3.90
2019-01-11T06:57:45.135Z,-3.90
2019-01-11T07:00:17.868Z,-3.90
2019-01-11T07:02:46.394Z,-3.80
2019-01-11T07:05:14.874Z,-3.80
2019-01-11T07:07:43.394Z,-3.90
2019-01-11T07:10:17.287Z,-3.90
2019-01-11T07:12:45.802Z,-3.80
2019-01-11T07:15:14.437Z,-4.00
2019-01-11T07:17:42.903Z,-4.10
2019-01-11T07:20:14.060Z,-4.10
2019-01-11T07:22:42.936Z,-4.00
2019-01-11T07:25:13.445Z,-3.90
2019-01-11T07:27:43.570Z,-3.80
2019-01-11T07:30:14.659Z,-3.80
2019-01-11T07:32:43.282Z,-3.90
2019-01-11T07:35:11.891Z,-3.90
2019-01-11T07:37:40.445Z,-3.80
2019-01-11T07:40:12.740Z,-3.80
2019-01-11T07:42:41.271Z,-3.70
2019-01-11T07:45:13.800Z,-3.60
2019-01-11T07:47:42.357Z,-3.50
2019-01-11T07:50:11.087Z,-3.50
2019-01-11T07:52:40.162Z,-3.50
2019-01-11T07:55:09.703Z,-3.50
2019-01-11T07:57:38.153Z,-3.50
2019-01-11T08:00:11.465Z,-3.30
2019-01-11T08:02:39.938Z,-3.30
2019-01-11T08:05:08.725Z,-3.20
2019-01-11T08:07:37.288Z,-3.00
2019-01-11T08:10:08.758Z,-2.90
2019-01-11T08:12:37.309Z,-3.10
2019-01-11T08:15:08.882Z,-3.00
2019-01-11T08:17:37.326Z,-3.00
2019-01-11T08:20:07.247Z,-3.00
2019-01-11T08:22:37.347Z,-3.00
2019-01-11T08:25:06.845Z,-2.90
2019-01-11T08:27:35.370Z,-2.70
2019-01-11T08:30:05.455Z,-2.60
2019-01-11T08:32:33.932Z,-2.50
2019-01-11T08:35:03.958Z,-2.40
2019-01-11T08:37:32.620Z,-2.00
2019-01-11T08:40:01.065Z,-2.00
2019-01-11T08:42:29.612Z,-1.90
2019-01-11T08:44:59.739Z,-1.50
2019-01-11T08:47:28.224Z,-1.20
2019-01-11T08:49:56.733Z,-1.30
2019-01-11T08:52:25.191Z,-1.40
2019-01-11T08:54:53.648Z,-1.60
2019-01-11T08:57:22.302Z,-1.70
2019-01-11T08:59:50.830Z,-1.80
2019-01-11T09:02:19.298Z,-1.90
2019-01-11T09:04:47.767Z,-1.90
2019-01-11T09:07:16.326Z,-2.10
2019-01-11T09:09:44.787Z,-2.20
2019-01-11T09:12:13.387Z,-2.10
2019-01-11T09:14:48.425Z,-2.20
2019-01-11T09:17:17.361Z,-2.20
2019-01-11T09:19:45.894Z,-2.30
2019-01-11T09:22:14.390Z,-2.30
2019-01-11T09:24:42.930Z,-2.30
2019-01-11T09:27:11.376Z,-2.40
2019-01-11T09:29:39.847Z,-2.50
2019-01-11T09:32:08.292Z,-2.40
2019-01-11T09:34:36.782Z,-2.20
2019-01-11T09:37:05.433Z,-2.00
2019-01-11T09:39:33.922Z,-1.90
2019-01-11T09:42:02.388Z,-1.80
2019-01-11T09:44:30.906Z,-1.70
2019-01-11T09:47:01.232Z,-1.60
2019-01-11T09:49:29.688Z,-1.50
2019-01-11T09:51:58.179Z,-1.40
2019-01-11T09:54:26.635Z,-1.60
2019-01-11T09:56:55.124Z,-1.40
2019-01-11T09:59:23.620Z,-1.30
2019-01-11T10:01:53.718Z,-1.30
2019-01-11T10:04:23.921Z,-2.20
2019-01-11T10:06:54.083Z,-1.10
2019-01-11T10:09:22.600Z,-1.00
2019-01-11T10:11:51.057Z,-0.80
2019-01-11T10:14:19.555Z,-0.70
2019-01-11T10:16:48.013Z,-0.50
2019-01-11T10:19:16.510Z,-0.40
2019-01-11T10:21:44.965Z,-0.40
2019-01-11T10:24:13.520Z,-0.40
2019-01-11T10:26:42.075Z,-0.50
2019-01-11T10:29:10.628Z,-0.60
2019-01-11T10:31:39.087Z,-0.60
2019-01-11T10:34:07.587Z,-0.70
2019-01-11T10:36:36.105Z,-0.60
2019-01-11T10:39:07.181Z,-0.40
2019-01-11T10:41:35.729Z,-0.40
2019-01-11T10:44:04.185Z,-0.30
2019-01-11T10:46:34.311Z,-0.30
2019-01-11T10:49:02.755Z,-0.30
2019-01-11T10:51:31.317Z,-0.30
2019-01-11T10:53:59.778Z,-0.20
2019-01-11T10:56:28.223Z,-0.30
2019-01-11T10:58:56.711Z,-0.30
2019-01-11T11:01:25.274Z,-0.40
2019-01-11T11:03:53.721Z,-0.40
2019-01-11T11:06:22.247Z,-0.30
2019-01-11T11:08:50.801Z,-0.30
2019-01-11T11:11:19.256Z,-0.30
2019-01-11T11:13:47.738Z,-0.20
2019-01-11T11:16:16.217Z,-0.20
2019-01-11T11:18:44.783Z,-0.10
2019-01-11T11:21:13.332Z,-0.10
2019-01-11T11:23:42.957Z,-0.10
2019-01-11T11:26:11.507Z,-0.10
2019-01-11T11:28:40.008Z,-0.10
2019-01-11T11:31:09.053Z,0.00
2019-01-11T11:33:37.737Z,-0.10
2019-01-11T11:36:06.217Z,-0.40
2019-01-11T11:38:34.711Z,-0.20
2019-01-11T11:41:03.233Z,-0.20
2019-01-11T11:43:31.843Z,-0.30
2019-01-11T11:46:00.337Z,-0.30
2019-01-11T11:48:28.909Z,-0.10
2019-01-11T11:50:57.401Z,0.00
2019-01-11T11:53:25.860Z,0.00
2019-01-11T11:55:54.419Z,0.10
2019-01-11T11:58:22.869Z,0.00
2019-01-11T12:00:51.442Z,-0.10
2019-01-11T12:03:20.008Z,0.00
2019-01-11T12:05:48.534Z,-0.10
2019-01-11T12:08:17.026Z,-0.20
2019-01-11T12:10:45.499Z,-0.10
2019-01-11T12:13:13.972Z,-0.10
2019-01-11T12:15:42.546Z,0.00
2019-01-11T12:18:11.023Z,0.20
2019-01-11T12:20:39.677Z,0.50
2019-01-11T12:23:08.306Z,0.70
2019-01-11T12:25:36.797Z,1.00
2019-01-11T12:28:05.421Z,1.10
2019-01-11T12:30:33.939Z,1.00
2019-01-11T12:33:02.430Z,1.10
2019-01-11T12:35:30.992Z,1.00
2019-01-11T12:37:59.526Z,0.80
2019-01-11T12:40:28.115Z,0.70
2019-01-11T12:42:56.596Z,0.60
2019-01-11T12:45:25.148Z,0.50
2019-01-11T12:47:53.694Z,0.40
2019-01-11T12:50:23.819Z,0.30
2019-01-11T12:52:52.352Z,-0.10
2019-01-11T12:55:22.110Z,-0.10
2019-01-11T12:57:50.638Z,-0.10
2019-01-11T13:00:19.472Z,-0.20
2019-01-11T13:02:47.933Z,-0.20
2019-01-11T13:05:18.338Z,-0.10
2019-01-11T13:07:46.974Z,-0.10
2019-01-11T13:12:44.832Z,-0.10
2019-01-11T13:15:18.315Z,-0.20
2019-01-11T13:17:47.033Z,-0.10
2019-01-11T13:20:17.950Z,0.00
2019-01-11T13:22:46.648Z,0.00
2019-01-11T13:25:15.199Z,0.00
2019-01-11T13:27:43.804Z,0.00
2019-01-11T13:30:14.701Z,-0.20
2019-01-11T13:32:43.425Z,-0.20
2019-01-11T13:35:12.102Z,-0.30
2019-01-11T13:37:41.054Z,-0.20
2019-01-11T13:40:15.315Z,-0.20
2019-01-11T13:42:43.796Z,-0.20
2019-01-11T13:45:13.065Z,-0.20
2019-01-11T13:47:41.623Z,-0.10
2019-01-11T13:50:34.183Z,-0.20
2019-01-11T13:53:02.962Z,-0.20
2019-01-11T13:55:31.467Z,-0.20
2019-01-11T13:57:59.937Z,-0.20
2019-01-11T14:00:28.589Z,-0.30
2019-01-11T14:02:57.239Z,-0.30
2019-01-11T14:05:26.067Z,-0.40
2019-01-11T14:07:54.558Z,-0.50
2019-01-11T14:10:23.005Z,-0.40
2019-01-11T14:12:51.509Z,-0.50
2019-01-11T14:15:20.062Z,-0.50
2019-01-11T14:17:48.638Z,-0.40
2019-01-11T14:20:17.309Z,-0.50
2019-01-11T14:22:46.694Z,-0.50
2019-01-11T14:25:15.292Z,-0.60
2019-01-11T14:27:43.811Z,-0.60
2019-01-11T14:30:15.675Z,-0.70
2019-01-11T14:32:44.372Z,-0.70
2019-01-11T14:35:12.923Z,-0.80
2019-01-11T14:37:41.575Z,-0.80
2019-01-11T14:40:13.337Z,-0.80
2019-01-11T14:42:41.938Z,-0.80
2019-01-11T14:45:13.035Z,-0.80
2019-01-11T14:47:41.663Z,-0.80
2019-01-11T14:50:12.995Z,-0.90
2019-01-11T14:52:41.616Z,-0.90
2019-01-11T14:55:10.315Z,-0.90
2019-01-11T14:57:39.157Z,-1.00
2019-01-11T15:00:13.852Z,-0.90
2019-01-11T15:02:42.482Z,-1.00
2019-01-11T15:05:14.266Z,-1.00
2019-01-11T15:07:42.807Z,-0.90
2019-01-11T15:10:13.221Z,-1.00
2019-01-11T15:12:43.128Z,-1.10
2019-01-11T15:15:14.555Z,-1.10
2019-01-11T15:17:43.117Z,-1.00
2019-01-11T15:20:15.022Z,-1.00
2019-01-11T15:22:43.686Z,-1.00
2019-01-11T15:25:12.296Z,-1.00
2019-01-11T15:27:41.877Z,-1.00
2019-01-11T15:32:42.932Z,-1.20
2019-01-11T15:35:13.277Z,-0.90
2019-01-11T15:37:41.875Z,-1.00
2019-01-11T15:40:16.775Z,-1.30
2019-01-11T15:42:45.332Z,-1.10
2019-01-11T15:45:14.166Z,-1.40
2019-01-11T15:47:42.722Z,-1.00
2019-01-11T15:50:17.839Z,-1.30
2019-01-11T15:52:46.432Z,-1.30
2019-01-11T15:55:16.312Z,-1.30
2019-01-11T15:57:44.790Z,-1.30
2019-01-11T16:02:46.054Z,-1.40
2019-01-11T16:05:14.645Z,-1.40
2019-01-11T16:10:14.639Z,-1.80
2019-01-11T16:12:43.161Z,-1.30
2019-01-11T16:15:29.578Z,-1.00
2019-01-11T16:20:31.928Z,-1.00
2019-01-11T16:25:28.965Z,-1.50
2019-01-11T16:27:57.626Z,-1.30
2019-01-11T16:33:06.762Z,-1.70
2019-01-11T16:44:56.846Z,-1.40
2019-01-11T17:08:40.784Z,-1.40
2019-01-11T17:14:34.884Z,-1.40
2019-01-11T17:29:10.038Z,-1.50
2019-01-11T17:31:50.411Z,-1.30
2019-01-11T17:34:31.375Z,-1.40
2019-01-11T17:55:03.646Z,-1.30
2019-01-11T18:00:43.637Z,-1.30
2019-01-11T18:03:25.353Z,-1.20
2019-01-11T18:06:06.950Z,-1.40
2019-01-11T18:08:47.507Z,-1.50
2019-01-11T18:11:28.276Z,-1.40
2019-01-11T18:29:01.424Z,-1.20
2019-01-11T18:31:42.100Z,-1.30
2019-01-11T18:42:57.290Z,-1.30
2019-01-11T19:03:43.552Z,-1.20
2019-01-11T19:12:35.134Z,-1.40
2019-01-11T19:15:16.502Z,-1.10
2019-01-11T19:26:52.202Z,-1.10
2019-01-11T19:32:47.542Z,-1.10
2019-01-11T19:35:28.452Z,-1.20
2019-01-11T19:38:09.316Z,-1.20
2019-01-11T19:47:05.079Z,-1.20
2019-01-11T20:01:53.438Z,-1.20
2019-01-11T20:04:35.372Z,-1.00
2019-01-11T20:22:08.828Z,-1.20
2019-01-11T20:28:02.363Z,-1.30
2019-01-11T20:33:58.669Z,-1.10
2019-01-11T20:36:41.217Z,-1.60
2019-01-11T20:45:18.743Z,-1.10
2019-01-11T20:51:01.257Z,-1.10
2019-01-11T21:05:50.113Z,-1.20
2019-01-11T21:23:38.585Z,-1.30
2019-01-11T21:26:20.991Z,-1.30
2019-01-11T21:29:01.958Z,-1.30
2019-01-11T21:31:42.818Z,-1.20
2019-01-11T21:37:22.777Z,-0.90
2019-01-11T21:48:39.253Z,-1.30
2019-01-11T21:51:20.240Z,-1.00
2019-01-11T21:59:58.446Z,-1.10
2019-01-11T22:02:38.906Z,-0.90
2019-01-11T22:08:19.689Z,-1.10
2019-01-11T22:11:02.418Z,-1.20
2019-01-11T22:16:55.879Z,-1.20
2019-01-11T22:19:38.112Z,-1.10
2019-01-11T22:22:18.988Z,-1.10
2019-01-11T22:31:10.170Z,-1.00
2019-01-11T22:36:49.912Z,-1.00
2019-01-11T22:42:43.295Z,-0.80
2019-01-11T22:54:22.032Z,-1.00
2019-01-11T22:57:02.330Z,-0.90
2019-01-11T22:59:42.878Z,-0.80
2019-01-11T23:05:36.708Z,-0.90
2019-01-11T23:29:06.943Z,-0.90
2019-01-11T23:31:47.322Z,-0.70
2019-01-11T23:37:26.202Z,-0.60
2019-01-11T23:55:12.561Z,-0.30
2019-01-11T23:57:53.024Z,-0.50
